Terminal Aerodrome Forecast
Issued by NWS Tuscon, AZ

Home | Current Version | Previous Version | Text Only | Print | Product List | Glossary On
Versions: 1 2 3 4 5 6 7 8 9 10 11 12
000
FTUS45 KTWC 162320
TAFTUS
TAF
KTUS 162320Z 1700/1724 19012G18KT P6SM FEW150 OVC200
     FM170200 14010KT P6SM OVC150
     FM170900 13011KT P6SM VCSH OVC080
     FM171200 14011KT P6SM -SHRA SCT040 OVC060=

USA.gov is the U.S. government's official web portal to all federal, state and local government web resources and services.